Latest Coastal Weather Observations for Barrow Island

IDW60701

Issued at 7:32 pm WST Saturday 20 December 2014 (issued every 10 minutes, with the page automatically refreshed every 10 minutes)

About coastal observations | Map of coastal stations | Coastal observations for WA | Marine services | Other Formats
Station Details ID: 005094 Name: BARROW ISLAND AIRPORT Lat: -20.88 Lon: 115.41 Height: 6.4 m
Data from the previous 72 hours. | See also: Recent months at Barrow Island
Date/Time
WST
Temp

°C
Wind Pressure Rain
since 9am
mm
Weather Cloud Vis
km
Sea
Height
m
Swell
Dir
 
Speed
knots
Gust
knots
hPa Trend Height
m
Period
s
Dir
20/07:30pm 25.5 WSW 15 18 1007.4 - 0.0 - - - - - - -
20/07:00pm 25.7 W 15 18 1007.3 - 0.0 - - - - - - -
20/06:30pm 26.4 W 17 20 1007.0 - 0.0 - - - - - - -
20/06:00pm 27.1 W 17 21 1006.7 - 0.0 - - - - - - -
20/05:30pm 27.5 W 17 21 1006.7 - 0.0 - - - - - - -
20/05:00pm 28.3 W 17 20 1006.7 - 0.0 - - - - - - -
20/04:30pm 28.7 W 16 20 1006.8 - 0.0 - - - - - - -
20/04:00pm 28.6 W 17 20 1007.0 - 0.0 - - - - - - -
20/03:30pm 28.9 WSW 17 20 1007.2 - 0.0 - - - - - - -
20/03:00pm 29.6 WSW 16 19 1007.5 - 0.0 - - - - - - -
20/02:30pm 29.3 WSW 16 20 1007.9 - 0.0 - - - - - - -
20/02:00pm 29.7 WSW 14 20 1008.1 - 0.0 - - - - - - -
20/01:30pm 29.6 WSW 14 17 1008.4 - 0.0 - - - - - - -
20/01:00pm 29.4 WSW 14 17 1008.8 - 0.0 - - - - - - -
20/12:30pm 29.7 WSW 12 15 1009.2 - 0.0 - - - - - - -
20/12:00pm 29.2 WSW 11 13 1009.7 - 0.0 - - - - - - -
20/11:30am 28.5 SSW 12 15 1009.9 - 0.0 - - - - - - -
20/11:00am 27.9 SSW 12 14 1010.4 - 0.0 - - - - - - -
20/10:30am 27.9 SSW 11 13 1010.6 - 0.0 - - - - - - -
20/10:00am 27.2 SSW 11 14 1010.8 - 0.0 - - - - - - -
20/09:30am 27.2 SSW 11 12 1011.0 - 0.0 - - - - - - -
20/09:00am 26.8 SSW 11 13 1011.2 - 0.0 - - - - - - -
20/08:30am 26.6 SSW 11 14 1011.2 - 0.0 - - - - - - -
20/08:00am 26.3 SSW 11 13 1011.2 - 0.0 - - - - - - -
20/07:30am 26.4 SSW 12 14 1010.9 - 0.0 - - - - - - -
20/07:00am 26.0 SSW 12 14 1010.7 - 0.0 - - - - - - -
20/06:30am 25.5 SW 10 12 1010.3 - 0.0 - - - - - - -
20/06:00am 24.9 SW 10 11 1009.9 - 0.0 - - - - - - -
20/05:30am 24.6 SW 9 10 1009.7 - 0.0 - - - - - - -
20/05:00am 24.8 SW 11 13 1009.3 - 0.0 - - - - - - -
20/04:30am 25.0 SSW 11 13 1009.3 - 0.0 - - - - - - -
20/04:00am 24.8 SSW 10 13 1009.3 - 0.0 - - - - - - -
20/03:30am 24.7 SW 10 12 1009.3 - 0.0 - - - - - - -
20/03:00am 24.4 SW 10 11 1009.2 - 0.0 - - - - - - -
20/02:30am 24.2 WSW 8 10 1009.3 - 0.0 - - - - - - -
20/02:00am 24.2 WSW 8 10 1009.4 - 0.0 - - - - - - -
20/01:30am 24.3 WSW 10 13 1009.5 - 0.0 - - - - - - -
20/01:00am 24.5 SW 11 12 1009.9 - 0.0 - - - - - - -
20/12:30am 24.5 SW 10 13 1010.3 - 0.0 - - - - - - -
 
Date/Time
WST
Temp

°C
Wind Pressure Rain
since 9am
mm
Weather Cloud Vis
km
Sea
Height
m
Swell
Dir
 
Speed
knots
Gust
knots
hPa Trend Height
m
Period
s
Dir
19/11:30pm 24.3 W 7 10 1011.2 - 0.0 - - - - - - -
19/11:00pm 24.5 W 8 11 1011.4 - 0.0 - - - - - - -
19/10:30pm 24.5 W 9 12 1011.4 - 0.0 - - - - - - -
19/10:00pm 24.5 W 9 12 1011.3 - 0.0 - - - - - - -
19/09:30pm 24.6 W 9 12 1011.2 - 0.0 - - - - - - -
19/09:00pm 24.8 W 10 13 1010.9 - 0.0 - - - - - - -
19/08:30pm 24.9 W 12 15 1010.8 - 0.0 - - - - - - -
19/08:00pm 25.0 W 12 15 1010.7 - 0.0 - - - - - - -
19/07:30pm 25.4 W 12 16 1010.5 - 0.0 - - - - - - -
19/07:00pm 25.6 W 13 16 1010.2 - 0.0 - - - - - - -
19/06:30pm 26.4 W 15 17 1009.9 - 0.0 - - - - - - -
19/06:00pm 27.5 W 14 18 1009.5 - 0.0 - - - - - - -
19/05:30pm 28.3 W 15 18 1009.1 - 0.0 - - - - - - -
19/05:00pm 29.5 W 12 16 1008.8 - 0.0 - - - - - - -
19/04:30pm 29.8 W 13 18 1008.6 - 0.0 - - - - - - -
19/04:00pm 30.6 W 13 18 1008.4 - 0.0 - - - - - - -
19/03:30pm 30.9 WNW 12 17 1008.7 - 0.0 - - - - - - -
19/03:00pm 31.5 W 12 16 1008.9 - 0.0 - - - - - - -
19/02:30pm 29.9 WSW 13 18 1008.9 - 0.0 - - - - - - -
19/02:00pm 30.7 WSW 14 17 1009.1 - 0.0 - - - - - - -
19/01:30pm 30.5 WSW 14 19 1009.1 - 0.0 - - - - - - -
19/01:00pm 30.1 WSW 14 19 1009.4 - 0.0 - - - - - - -
19/12:30pm 29.7 WSW 14 17 1009.4 - 0.0 - - - - - - -
19/12:00pm 29.6 WSW 13 17 1009.7 - 0.0 - - - - - - -
19/11:30am 29.2 WSW 15 17 1009.9 - 0.0 - - - - - - -
19/11:00am 29.2 WSW 14 17 1010.2 - 0.0 - - - - - - -
19/10:30am 29.2 WSW 12 17 1010.5 - 0.0 - - - - - - -
19/10:00am 28.7 WSW 13 16 1010.6 - 0.0 - - - - - - -
19/09:30am 29.0 WSW 12 15 1010.6 - 0.0 - - - - - - -
19/09:00am 28.6 WSW 10 13 1010.5 - 0.0 - - - - - - -
19/08:30am 27.7 W 11 13 1010.6 - 0.0 - - - - - - -
19/08:00am 27.3 W 11 14 1010.2 - 0.0 - - - - - - -
19/07:30am 26.5 W 12 15 1010.0 - 0.0 - - - - - - -
19/07:00am 25.7 W 12 15 1009.7 - 0.0 - - - - - - -
19/06:30am 24.8 W 9 12 1009.4 - 0.0 - - - - - - -
19/06:00am 23.5 W 8 10 1009.1 - 0.0 - - - - - - -
19/05:30am 23.0 W 8 9 1008.7 - 0.0 - - - - - - -
19/05:00am 23.0 W 7 8 1008.3 - 0.0 - - - - - - -
19/04:30am 23.1 W 8 9 1008.0 - 0.0 - - - - - - -
19/04:00am 23.7 W 8 9 1008.3 - 0.0 - - - - - - -
19/03:30am 23.9 W 8 9 1008.3 - 0.0 - - - - - - -
19/03:00am 24.1 W 9 10 1008.3 - 0.0 - - - - - - -
19/02:30am 24.4 WSW 10 12 1008.3 - 0.0 - - - - - - -
19/02:00am 24.6 WSW 10 13 1008.2 - 0.0 - - - - - - -
19/01:30am 24.6 WSW 11 14 1008.2 - 0.0 - - - - - - -
19/01:00am 24.7 WSW 13 17 1008.1 - 0.0 - - - - - - -
19/12:30am 24.6 WSW 12 16 1008.2 - 0.0 - - - - - - -
19/12:00am 24.7 WSW 12 15 1008.3 - 0.0 - - - - - - -
 
Date/Time
WST
Temp

°C
Wind Pressure Rain
since 9am
mm
Weather Cloud Vis
km
Sea
Height
m
Swell
Dir
 
Speed
knots
Gust
knots
hPa Trend Height
m
Period
s
Dir
18/11:30pm 24.8 WSW 13 17 1008.4 - 0.0 - - - - - - -
18/11:00pm 24.9 WSW 14 17 1008.2 - 0.0 - - - - - - -
18/10:30pm 25.0 W 13 17 1008.1 - 0.0 - - - - - - -
18/10:00pm 25.2 W 13 17 1008.1 - 0.0 - - - - - - -
18/09:30pm 25.2 W 15 19 1007.8 - 0.0 - - - - - - -
18/09:00pm 25.2 W 16 20 1007.3 - 0.0 - - - - - - -
18/08:30pm 25.2 W 16 20 1007.1 - 0.0 - - - - - - -
18/08:00pm 25.2 W 17 21 1007.1 - 0.0 - - - - - - -
18/07:30pm 25.3 W 18 22 1007.1 - 0.0 - - - - - - -
18/07:00pm 25.6 W 18 21 1006.8 - 0.0 - - - - - - -
18/06:30pm 26.3 W 18 22 1006.5 - 0.0 - - - - - - -
18/06:00pm 27.0 W 18 22 1006.3 - 0.0 - - - - - - -
18/05:30pm 27.7 W 18 23 1006.0 - 0.0 - - - - - - -
18/05:00pm 28.2 W 18 23 1005.9 - 0.0 - - - - - - -
18/04:30pm 28.6 W 18 22 1005.8 - 0.0 - - - - - - -
18/04:00pm 29.0 W 18 22 1005.8 - 0.0 - - - - - - -
18/03:30pm 29.3 W 18 25 1006.1 - 0.0 - - - - - - -
18/03:00pm 29.8 W 17 21 1006.4 - 0.0 - - - - - - -
18/02:30pm 30.0 W 18 21 1006.4 - 0.0 - - - - - - -
18/02:00pm 29.4 W 17 21 1006.7 - 0.0 - - - - - - -
18/01:30pm 29.2 W 17 23 1006.9 - 0.0 - - - - - - -
18/01:00pm 29.4 W 16 20 1007.2 - 0.0 - - - - - - -
18/12:30pm 29.1 WSW 16 19 1007.4 - 0.0 - - - - - - -
18/12:00pm 28.8 WSW 15 19 1007.7 - 0.0 - - - - - - -
18/11:30am 29.1 WSW 14 19 1007.8 - 0.0 - - - - - - -
18/11:00am 28.5 WSW 15 18 1007.8 - 0.0 - - - - - - -
18/10:30am 28.1 SW 15 19 1007.9 - 0.0 - - - - - - -
18/10:00am 27.2 SW 16 19 1008.1 - 0.0 - - - - - - -
18/09:30am 27.0 SW 16 19 1008.2 - 0.0 - - - - - - -
18/09:00am 26.4 SW 16 20 1008.3 - 0.0 - - - - - - -
18/08:30am 26.4 SW 16 19 1008.2 - 0.0 - - - - - - -
18/08:00am 26.1 SW 17 21 1008.0 - 0.0 - - - - - - -
18/07:30am 25.9 SW 19 21 1007.6 - 0.0 - - - - - - -
18/07:00am 25.4 WSW 15 19 1007.4 - 0.0 - - - - - - -
18/06:30am 24.8 WSW 15 19 1007.2 - 0.0 - - - - - - -
18/06:00am 24.3 WSW 13 15 1006.9 - 0.0 - - - - - - -
18/05:30am 24.2 WSW 13 16 1006.6 - 0.0 - - - - - - -
18/05:00am 24.3 WSW 12 16 1006.3 - 0.0 - - - - - - -
18/04:30am 24.3 WSW 12 16 1006.3 - 0.0 - - - - - - -
18/04:00am 24.3 WSW 14 17 1006.3 - 0.0 - - - - - - -
18/03:30am 24.4 WSW 13 16 1006.2 - 0.0 - - - - - - -
18/03:00am 24.5 WSW 14 18 1006.1 - 0.0 - - - - - - -
18/02:30am 24.7 WSW 14 17 1006.1 - 0.0 - - - - - - -
18/02:00am 24.7 WSW 13 16 1005.9 - 0.0 - - - - - - -
18/01:30am 25.0 WSW 14 18 1006.0 - 0.0 - - - - - - -
18/01:00am 25.1 WSW 14 18 1006.1 - 0.0 - - - - - - -
18/12:30am 25.1 W 15 19 1006.2 - 0.0 - - - - - - -
18/12:00am 25.1 W 15 18 1006.3 - 0.0 - - - - - - -
 
Date/Time
WST
Temp

°C
Wind Pressure Rain
since 9am
mm
Weather Cloud Vis
km
Sea
Height
m
Swell
Dir
 
Speed
knots
Gust
knots
hPa Trend Height
m
Period
s
Dir
17/11:30pm 24.9 W 15 18 1006.4 - 0.0 - - - - - - -
17/11:00pm 25.0 W 15 19 1006.6 - 0.0 - - - - - - -
17/10:30pm 25.0 W 16 19 1006.6 - 0.0 - - - - - - -
17/10:00pm 25.2 W 16 21 1006.6 - 0.0 - - - - - - -
17/09:30pm 25.2 W 16 21 1006.3 - 0.0 - - - - - - -
17/09:00pm 25.3 W 18 22 1006.0 - 0.0 - - - - - - -
17/08:30pm 25.4 W 16 21 1005.7 - 0.0 - - - - - - -
17/08:00pm 25.4 W 18 21 1005.4 - 0.0 - - - - - - -

Other Formats:

Comma delimited format used in spreadsheet applications
http://www.bom.gov.au/fwo/IDW60701/IDW60701.95304.axf

JavaScript Object Notation format (JSON) in row-major order
http://www.bom.gov.au/fwo/IDW60701/IDW60701.95304.json